Time;durP1;ratioP1;P1;durP2;ratioP2;P2;SDS_P1;SDS_P2;PMS_P1;PMS_P2;Temp;Humidity;BMP_temperature;BMP_pressure;BME280_temperature;BME280_humidity;BME280_pressure;Samples;Min_cycle;Max_cycle;Signal;HPM_P1;HPM_P2
2023/07/02 00:00:41;;;;;;;;;;;;;;;24.46;55.75;99388.06;5400347;32;35023;-73
2023/07/02 00:03:43;;;;;;;;;;;;;;;24.48;55.93;99388.75;5404370;32;34932;-70
2023/07/02 00:06:45;;;;;;;;;;;;;;;24.84;54.80;99380.16;5404875;32;34223;-71
2023/07/02 00:09:47;;;;;;;;;;;;;;;24.47;55.88;99388.88;5407975;32;34412;-72
2023/07/02 00:12:49;;;;;;;;;;;;;;;24.52;55.77;99373.94;5406064;32;34685;-72
2023/07/02 00:15:51;;;;;;;;;;;;;;;24.58;55.33;99375.09;5411681;32;35046;-72
2023/07/02 00:18:53;;;;;;;;;;;;;;;24.95;54.31;99378.94;5405181;32;34946;-70
2023/07/02 00:21:56;;;;;;;;;;;;;;;24.53;55.33;99375.59;5405775;32;35414;-72
2023/07/02 00:24:57;;;;;;;;;;;;;;;24.77;54.29;99376.50;5407199;32;34751;-74
2023/07/02 00:27:59;;;;;;;;;;;;;;;25.03;53.69;99376.19;5402007;32;35074;-72
2023/07/02 00:31:02;;;;;;;;;;;;;;;24.88;53.79;99372.59;5409273;32;35329;-70
2023/07/02 00:34:04;;;;;;;;;;;;;;;24.45;54.84;99382.84;5404462;32;35498;-70
2023/07/02 00:37:06;;;;;;;;;;;;;;;24.64;54.21;99377.06;5411155;32;34007;-72
2023/07/02 00:40:08;;;;;;;;;;;;;;;24.35;54.89;99382.25;5404944;32;34931;-70
2023/07/02 00:43:12;;;;;;;;;;;;;;;24.53;54.31;99369.37;5405971;32;34893;-70
2023/07/02 00:46:19;;;;;;;;;;;;;;;24.85;53.52;99369.25;5403651;32;34691;-73
2023/07/02 00:49:22;;;;;;;;;;;;;;;24.67;54.07;99370.53;5405979;32;34737;-70
2023/07/02 00:52:25;;;;;;;;;;;;;;;24.22;55.15;99377.38;5395208;32;35428;-71
2023/07/02 00:55:27;;;;;;;;;;;;;;;24.21;54.94;99376.50;5390301;32;34758;-72
2023/07/02 00:58:29;;;;;;;;;;;;;;;24.10;55.23;99379.59;5408741;32;35110;-71
2023/07/02 01:01:37;;;;;;;;;;;;;;;24.25;54.45;99380.53;5390495;32;35576;-73
2023/07/02 01:04:39;;;;;;;;;;;;;;;24.90;52.75;99365.19;5405693;32;35804;-70
2023/07/02 01:07:42;;;;;;;;;;;;;;;24.00;55.10;99378.91;5408645;32;34891;-73
2023/07/02 01:10:44;;;;;;;;;;;;;;;24.12;54.36;99382.09;5402802;32;34287;-71
2023/07/02 01:13:46;;;;;;;;;;;;;;;24.59;53.08;99374.06;5404231;32;34313;-73
2023/07/02 01:16:49;;;;;;;;;;;;;;;23.98;54.63;99379.09;5391547;32;34594;-72
2023/07/02 01:19:51;;;;;;;;;;;;;;;24.28;53.55;99387.41;5407312;32;34127;-71
2023/07/02 01:22:53;;;;;;;;;;;;;;;24.02;53.94;99387.62;5404907;32;36256;-70
2023/07/02 01:25:58;;;;;;;;;;;;;;;23.91;53.99;99388.84;5390508;32;35721;-73
2023/07/02 01:29:12;;;;;;;;;;;;;;;24.22;52.85;99383.59;5408612;32;34884;-73
2023/07/02 01:32:14;;;;;;;;;;;;;;;24.71;51.13;99382.59;5401176;32;34862;-74
2023/07/02 01:35:16;;;;;;;;;;;;;;;23.95;53.08;99386.63;5406918;32;34821;-71
2023/07/02 01:38:22;;;;;;;;;;;;;;;24.33;52.18;99379.66;5394808;32;34210;-74
2023/07/02 01:41:23;;;;;;;;;;;;;;;24.35;52.07;99382.25;5407395;32;34980;-72
2023/07/02 01:44:25;;;;;;;;;;;;;;;24.55;51.16;99375.44;5403180;32;34415;-70
2023/07/02 01:47:27;;;;;;;;;;;;;;;24.85;50.03;99384.53;5401235;32;35772;-73
2023/07/02 01:50:29;;;;;;;;;;;;;;;;;;5408212;32;34671;-70
2023/07/02 01:53:31;;;;;;;;;;;;;;;24.48;50.43;99390.59;5404416;32;34719;-72
2023/07/02 01:56:33;;;;;;;;;;;;;;;24.54;50.58;99385.34;5408715;32;34907;-71
2023/07/02 01:59:35;;;;;;;;;;;;;;;24.51;50.61;99371.41;5404114;32;34286;-71
2023/07/02 02:02:37;;;;;;;;;;;;;;;24.36;50.55;99379.38;5407975;32;35023;-70
2023/07/02 02:05:39;;;;;;;;;;;;;;;24.01;51.13;99385.94;5405347;32;35248;-73
2023/07/02 02:08:41;;;;;;;;;;;;;;;24.21;50.45;99381.03;5404466;32;34677;-73
2023/07/02 02:11:44;;;;;;;;;;;;;;;24.60;49.24;99375.75;5408800;32;34831;-72
2023/07/02 02:14:46;;;;;;;;;;;;;;;24.38;49.69;99382.72;5402655;32;34551;-71
2023/07/02 02:17:48;;;;;;;;;;;;;;;24.37;49.74;99381.03;5409092;32;35045;-70
2023/07/02 02:20:50;;;;;;;;;;;;;;;24.32;49.84;99381.53;5403763;32;35390;-72
2023/07/02 02:23:52;;;;;;;;;;;;;;;24.28;49.90;99372.16;5406760;32;34477;-70
2023/07/02 02:26:54;;;;;;;;;;;;;;;24.06;50.55;99378.22;5405932;32;34814;-72
2023/07/02 02:29:55;;;;;;;;;;;;;;;24.21;49.50;99375.69;5399946;32;35674;-71
2023/07/02 02:32:57;;;;;;;;;;;;;;;23.85;50.83;99376.09;5405851;32;35201;-70
2023/07/02 02:35:59;;;;;;;;;;;;;;;24.26;49.89;99376.00;5399685;32;34334;-70
2023/07/02 02:39:01;;;;;;;;;;;;;;;24.44;49.07;99362.38;5411054;32;36790;-72
2023/07/02 02:42:04;;;;;;;;;;;;;;;24.30;49.27;99378.19;5404122;32;34776;-72
2023/07/02 02:45:06;;;;;;;;;;;;;;;23.20;51.96;99368.84;5400028;32;34752;-72
2023/07/02 02:48:08;;;;;;;;;;;;;;;23.67;50.74;99368.22;5404791;32;34333;-71
2023/07/02 02:51:10;;;;;;;;;;;;;;;23.42;51.54;99367.34;5402171;32;34975;-73
2023/07/02 02:54:12;;;;;;;;;;;;;;;24.28;48.96;99358.72;5408623;32;34648;-74
2023/07/02 02:57:14;;;;;;;;;;;;;;;23.80;50.34;99362.34;5403427;32;34769;-71
2023/07/02 03:00:16;;;;;;;;;;;;;;;24.10;49.42;99362.63;5405075;32;34737;-71
2023/07/02 03:03:20;;;;;;;;;;;;;;;22.84;52.45;99364.72;5404960;32;36037;-70
2023/07/02 03:06:22;;;;;;;;;;;;;;;23.18;51.91;99362.78;5401554;32;35580;-72
2023/07/02 03:09:24;;;;;;;;;;;;;;;23.76;50.04;99358.31;5406488;32;35569;-70
2023/07/02 03:12:26;;;;;;;;;;;;;;;23.23;51.66;99368.50;5377053;32;34784;-71
2023/07/02 03:15:28;;;;;;;;;;;;;;;23.42;50.84;99363.84;5406022;32;33465;-71
2023/07/02 03:18:30;;;;;;;;;;;;;;;23.21;51.26;99370.53;5402085;32;34610;-72
2023/07/02 03:21:32;;;;;;;;;;;;;;;23.26;51.27;99366.50;5405185;32;34729;-71
2023/07/02 03:24:34;;;;;;;;;;;;;;;23.42;50.73;99374.56;5403515;32;34904;-72
2023/07/02 03:27:36;;;;;;;;;;;;;;;24.09;49.09;99371.69;5401844;32;34320;-70
2023/07/02 03:30:38;;;;;;;;;;;;;;;23.28;50.99;99369.88;5406253;32;34387;-70
2023/07/02 03:33:40;;;;;;;;;;;;;;;22.97;51.91;99367.78;5403773;32;34945;-70
2023/07/02 03:36:43;;;;;;;;;;;;;;;22.68;52.72;99373.53;5410751;32;34438;-71
2023/07/02 03:39:45;;;;;;;;;;;;;;;23.01;51.89;99371.81;5406818;32;34607;-72
2023/07/02 03:42:47;;;;;;;;;;;;;;;23.79;49.66;99368.72;5410898;32;34390;-74
2023/07/02 03:45:49;;;;;;;;;;;;;;;23.64;50.09;99379.31;5405633;32;34832;-70
2023/07/02 03:48:51;;;;;;;;;;;;;;;23.82;49.34;99383.63;5409096;32;34403;-70
2023/07/02 03:51:53;;;;;;;;;;;;;;;24.07;48.45;99379.06;5411696;32;34932;-71
2023/07/02 03:54:55;;;;;;;;;;;;;;;23.60;49.58;99385.97;5409853;32;35131;-70
2023/07/02 03:57:57;;;;;;;;;;;;;;;23.56;50.04;99389.97;5413652;32;34290;-73
2023/07/02 04:00:59;;;;;;;;;;;;;;;23.90;49.20;99400.59;5407271;32;34981;-71
2023/07/02 04:04:01;;;;;;;;;;;;;;;23.91;48.94;99396.06;5399510;32;35144;-73
2023/07/02 04:07:03;;;;;;;;;;;;;;;24.36;47.85;99400.03;5408758;32;34659;-72
2023/07/02 04:10:05;;;;;;;;;;;;;;;24.06;48.53;99394.34;5397086;32;35419;-73
2023/07/02 04:13:07;;;;;;;;;;;;;;;24.66;47.25;99384.94;5412805;32;35002;-70
2023/07/02 04:16:09;;;;;;;;;;;;;;;23.81;49.42;99406.94;5407854;32;34810;-73
2023/07/02 04:19:11;;;;;;;;;;;;;;;23.18;51.22;99397.63;5412668;32;34385;-70
2023/07/02 04:22:14;;;;;;;;;;;;;;;23.48;50.27;99401.53;5403367;32;34981;-71
2023/07/02 04:25:16;;;;;;;;;;;;;;;23.32;50.68;99400.72;5412487;32;34546;-72
2023/07/02 04:28:37;;;;;;;;;;;;;;;23.57;50.25;99407.78;5409170;32;35555;-70
2023/07/02 04:31:39;;;;;;;;;;;;;;;24.00;49.05;99403.06;5406369;32;35076;-70
2023/07/02 04:34:41;;;;;;;;;;;;;;;24.63;47.34;99406.81;5399094;32;34921;-72
2023/07/02 04:37:43;;;;;;;;;;;;;;;24.18;48.39;99401.03;5412409;32;34867;-72
2023/07/02 04:40:45;;;;;;;;;;;;;;;24.92;46.73;99411.53;5408740;32;35297;-70
2023/07/02 04:43:48;;;;;;;;;;;;;;;24.68;47.12;99416.03;5403441;32;34785;-72
2023/07/02 04:46:50;;;;;;;;;;;;;;;25.50;45.27;99410.19;5408231;32;35893;-73
2023/07/02 04:49:52;;;;;;;;;;;;;;;24.40;48.04;99414.75;5407683;32;34980;-70
2023/07/02 04:52:55;;;;;;;;;;;;;;;24.60;48.04;99424.09;5404934;32;34164;-71
2023/07/02 04:55:58;;;;;;;;;;;;;;;24.94;47.04;99420.28;5407800;32;35311;-71
2023/07/02 04:58:59;;;;;;;;;;;;;;;25.79;44.94;99418.41;5404733;32;35069;-71
2023/07/02 05:02:01;;;;;;;;;;;;;;;25.66;45.69;99426.22;5408357;32;35438;-70
2023/07/02 05:05:04;;;;;;;;;;;;;;;25.63;45.27;99424.75;5405239;32;35393;-70
2023/07/02 05:08:06;;;;;;;;;;;;;;;25.84;44.99;99423.25;5408051;32;35402;-71
2023/07/02 05:11:07;;;;;;;;;;;;;;;25.80;45.10;99427.31;5404659;32;34214;-71
2023/07/02 05:14:09;;;;;;;;;;;;;;;26.42;43.56;99425.25;5402940;32;34522;-73
2023/07/02 05:17:14;;;;;;;;;;;;;;;26.83;42.71;99418.53;5396420;32;34993;-73
2023/07/02 05:20:16;;;;;;;;;;;;;;;26.93;42.20;99427.16;5403019;32;35728;-70
2023/07/02 05:23:18;;;;;;;;;;;;;;;27.56;40.63;99432.84;5409118;32;34870;-72
2023/07/02 05:26:19;;;;;;;;;;;;;;;27.70;40.36;99440.12;5402833;32;34276;-71
2023/07/02 05:29:21;;;;;;;;;;;;;;;28.57;38.89;99437.87;5407572;32;34495;-72
2023/07/02 05:32:23;;;;;;;;;;;;;;;28.16;37.71;99434.25;5404058;32;34714;-72
2023/07/02 05:35:25;;;;;;;;;;;;;;;28.92;37.15;99443.31;5404354;32;35182;-73
2023/07/02 05:38:27;;;;;;;;;;;;;;;27.79;38.82;99442.47;5411752;32;34226;-70
2023/07/02 05:41:30;;;;;;;;;;;;;;;27.84;38.59;99446.47;5402376;32;34841;-71
2023/07/02 05:44:32;;;;;;;;;;;;;;;28.01;38.50;99448.66;5406722;32;34942;-73
2023/07/02 05:47:34;;;;;;;;;;;;;;;27.06;40.38;99456.19;5387576;32;35291;-73
2023/07/02 05:50:36;;;;;;;;;;;;;;;25.22;44.76;99460.97;5406096;32;34967;-70
2023/07/02 05:53:38;;;;;;;;;;;;;;;25.51;44.03;99465.69;5404044;32;35069;-70
2023/07/02 05:56:40;;;;;;;;;;;;;;;26.64;41.73;99463.06;5404066;32;34883;-72
2023/07/02 05:59:42;;;;;;;;;;;;;;;24.86;45.77;99466.84;5393250;32;35383;-73
2023/07/02 06:02:46;;;;;;;;;;;;;;;25.45;44.71;99467.25;5403932;32;35779;-71
2023/07/02 06:05:51;;;;;;;;;;;;;;;26.37;42.36;99467.19;5407953;32;34945;-72
2023/07/02 06:08:53;;;;;;;;;;;;;;;25.78;43.91;99467.03;5405373;32;34495;-70
2023/07/02 06:11:55;;;;;;;;;;;;;;;26.06;43.19;99467.31;5403014;32;34695;-70
2023/07/02 06:14:57;;;;;;;;;;;;;;;25.82;43.89;99462.97;5407107;32;36118;-72
2023/07/02 06:17:59;;;;;;;;;;;;;;;26.34;42.98;99467.53;5406597;32;34382;-72
2023/07/02 06:21:01;;;;;;;;;;;;;;;25.71;44.20;99472.28;5403972;32;34939;-73
2023/07/02 06:24:03;;;;;;;;;;;;;;;26.22;43.13;99469.88;5404575;32;34810;-71
2023/07/02 06:27:05;;;;;;;;;;;;;;;26.85;41.69;99479.31;5408131;32;35033;-70
2023/07/02 06:30:07;;;;;;;;;;;;;;;26.99;41.23;99466.87;5404167;32;36614;-70
2023/07/02 06:33:09;;;;;;;;;;;;;;;26.74;41.40;99474.41;5405931;32;34895;-70
2023/07/02 06:36:13;;;;;;;;;;;;;;;26.22;42.50;99477.94;5407737;32;35361;-71
2023/07/02 06:39:18;;;;;;;;;;;;;;;26.86;41.24;99485.56;5402739;32;34676;-70
2023/07/02 06:42:20;;;;;;;;;;;;;;;27.09;40.66;99477.38;5407812;32;34949;-72
2023/07/02 06:45:22;;;;;;;;;;;;;;;27.02;40.97;99481.81;5387250;32;35233;-72
2023/07/02 06:48:24;;;;;;;;;;;;;;;28.45;38.29;99484.56;5405573;32;34846;-71
2023/07/02 06:51:26;;;;;;;;;;;;;;;28.99;36.63;99470.38;5403858;32;35689;-69
2023/07/02 06:54:28;;;;;;;;;;;;;;;28.30;37.45;99476.56;5404928;32;35387;-72
2023/07/02 06:57:30;;;;;;;;;;;;;;;29.27;35.23;99483.81;5393802;32;34921;-72
2023/07/02 07:00:35;;;;;;;;;;;;;;;29.39;35.06;99479.47;5404570;32;36905;-71
2023/07/02 07:03:37;;;;;;;;;;;;;;;29.35;35.49;99492.56;5394874;32;34590;-72
2023/07/02 07:06:39;;;;;;;;;;;;;;;29.20;35.17;99494.59;5389830;32;34784;-74
2023/07/02 07:09:43;;;;;;;;;;;;;;;29.67;34.28;99490.19;5408827;32;34379;-71
2023/07/02 07:12:45;;;;;;;;;;;;;;;29.95;33.56;99490.03;5403967;32;35660;-71
2023/07/02 07:15:47;;;;;;;;;;;;;;;30.40;33.31;99490.25;5405581;32;35105;-71
2023/07/02 07:18:49;;;;;;;;;;;;;;;31.11;31.54;99490.34;5407160;32;34713;-72
2023/07/02 07:21:51;;;;;;;;;;;;;;;29.28;34.03;99509.81;5403673;32;35830;-70
2023/07/02 07:24:53;;;;;;;;;;;;;;;30.10;32.56;99492.56;5380418;32;859891;-70
2023/07/02 07:27:55;;;;;;;;;;;;;;;30.23;32.77;99495.28;5403332;32;34591;-71
2023/07/02 07:30:57;;;;;;;;;;;;;;;29.22;34.52;99507.94;5404482;32;35437;-71
2023/07/02 07:33:59;;;;;;;;;;;;;;;31.06;31.94;99495.59;5403990;32;35390;-73
2023/07/02 07:37:00;;;;;;;;;;;;;;;30.74;31.57;99500.06;5402713;32;34823;-70
2023/07/02 07:40:03;;;;;;;;;;;;;;;30.64;31.80;99508.59;5407680;32;35020;-70
2023/07/02 07:43:05;;;;;;;;;;;;;;;30.90;31.68;99507.72;5402627;32;34795;-70
2023/07/02 07:46:08;;;;;;;;;;;;;;;31.41;30.95;99504.22;5403736;32;35567;-71
2023/07/02 07:49:10;;;;;;;;;;;;;;;32.18;30.10;99498.72;5398775;32;35458;-71
2023/07/02 07:52:11;;;;;;;;;;;;;;;31.74;30.18;99504.03;5392900;32;35381;-74
2023/07/02 07:55:13;;;;;;;;;;;;;;;32.65;28.71;99502.72;5403230;32;35479;-70
2023/07/02 07:58:16;;;;;;;;;;;;;;;32.53;29.10;99501.81;5403020;32;34783;-72
2023/07/02 08:01:17;;;;;;;;;;;;;;;33.32;27.91;99506.37;5405711;32;36044;-70
2023/07/02 08:04:20;;;;;;;;;;;;;;;33.50;27.94;99512.91;5402402;32;34780;-71
2023/07/02 08:07:22;;;;;;;;;;;;;;;32.68;29.04;99515.06;5406113;32;34546;-73
2023/07/02 08:10:24;;;;;;;;;;;;;;;32.39;29.93;99511.97;5402292;32;35003;-71
2023/07/02 08:13:27;;;;;;;;;;;;;;;32.54;29.25;99512.47;5405063;32;34540;-71
2023/07/02 08:16:28;;;;;;;;;;;;;;;32.68;29.41;99515.06;5404040;32;35221;-73
2023/07/02 08:19:30;;;;;;;;;;;;;;;33.28;28.69;99526.13;5402271;32;35616;-73
2023/07/02 08:22:32;;;;;;;;;;;;;;;33.07;29.24;99527.44;5404286;32;35510;-73
2023/07/02 08:25:34;;;;;;;;;;;;;;;32.15;29.82;99524.47;5403156;32;35188;-74
2023/07/02 08:28:37;;;;;;;;;;;;;;;30.64;32.13;99527.56;5408969;32;34948;-71
2023/07/02 08:31:40;;;;;;;;;;;;;;;31.00;32.12;99534.41;5403666;32;35753;-70
2023/07/02 08:34:42;;;;;;;;;;;;;;;31.60;31.17;99537.75;5408408;32;34651;-73
2023/07/02 08:37:43;;;;;;;;;;;;;;;31.49;31.54;99544.72;5406717;32;35143;-71
2023/07/02 08:40:45;;;;;;;;;;;;;;;31.43;31.80;99551.00;5398397;32;34368;-73
2023/07/02 08:43:48;;;;;;;;;;;;;;;30.51;33.31;99551.97;5380978;32;35657;-72
2023/07/02 08:46:53;;;;;;;;;;;;;;;32.13;30.92;99552.91;5400905;32;34387;-74
2023/07/02 08:49:55;;;;;;;;;;;;;;;31.35;31.13;99558.53;5407667;32;34874;-73
2023/07/02 08:52:58;;;;;;;;;;;;;;;32.04;30.14;99557.81;5402681;32;35321;-70
2023/07/02 08:56:03;;;;;;;;;;;;;;;32.94;29.35;99568.41;5403075;32;34272;-71
2023/07/02 08:59:08;;;;;;;;;;;;;;;33.04;28.75;99565.97;5403281;32;34827;-73
2023/07/02 09:02:10;;;;;;;;;;;;;;;30.98;31.64;99571.81;5404897;32;34990;-73
2023/07/02 09:05:12;;;;;;;;;;;;;;;30.55;32.51;99568.69;5406092;32;34874;-73
2023/07/02 09:08:22;;;;;;;;;;;;;;;31.61;30.48;99563.03;5388613;32;34672;-71
2023/07/02 09:11:24;;;;;;;;;;;;;;;31.48;30.24;99563.91;5407170;32;34941;-73
2023/07/02 09:14:27;;;;;;;;;;;;;;;30.68;31.76;99564.09;5404692;32;34199;-71
2023/07/02 09:17:29;;;;;;;;;;;;;;;30.14;32.64;99565.13;5405943;32;34265;-71
2023/07/02 09:20:34;;;;;;;;;;;;;;;29.67;33.60;99569.56;5402539;32;35332;-72
2023/07/02 09:23:36;;;;;;;;;;;;;;;30.40;32.21;99571.56;5403611;32;35205;-73
2023/07/02 09:26:41;;;;;;;;;;;;;;;31.49;30.28;99573.72;5407989;32;35574;-71
2023/07/02 09:29:43;;;;;;;;;;;;;;;32.47;29.31;99567.97;5390117;32;34468;-74
2023/07/02 09:32:45;;;;;;;;;;;;;;;32.64;28.58;99552.75;5408650;32;34311;-72
2023/07/02 09:35:48;;;;;;;;;;;;;;;31.97;29.90;99551.59;5401989;32;34896;-71
2023/07/02 09:38:50;;;;;;;;;;;;;;;32.84;28.90;99549.81;5407111;32;35530;-75
2023/07/02 09:41:52;;;;;;;;;;;;;;;33.89;28.02;99555.09;5394468;32;34654;-72
2023/07/02 09:44:55;;;;;;;;;;;;;;;33.01;28.56;99566.44;5384551;32;35023;-73
2023/07/02 09:47:57;;;;;;;;;;;;;;;33.11;28.40;99559.41;5405446;32;34832;-74
2023/07/02 09:50:59;;;;;;;;;;;;;;;32.43;29.38;99558.59;5403530;32;34673;-73
2023/07/02 09:54:00;;;;;;;;;;;;;;;33.48;27.45;99547.69;5393831;32;35015;-73
2023/07/02 09:57:03;;;;;;;;;;;;;;;31.74;29.51;99561.06;5404539;32;35461;-74
2023/07/02 10:00:07;;;;;;;;;;;;;;;32.28;28.82;99565.16;5399898;32;35173;-74
2023/07/02 10:03:09;;;;;;;;;;;;;;;33.52;27.51;99557.06;5408336;32;34924;-71
2023/07/02 10:06:11;;;;;;;;;;;;;;;33.75;26.61;99565.38;5403821;32;34706;-74
2023/07/02 10:09:13;;;;;;;;;;;;;;;35.10;25.26;99548.31;5403462;32;34174;-73
2023/07/02 10:12:16;;;;;;;;;;;;;;;34.18;26.36;99553.41;5397822;32;35323;-72
2023/07/02 10:15:28;;;;;;;;;;;;;;;34.80;25.42;99551.13;5407826;32;34806;-72
2023/07/02 10:18:30;;;;;;;;;;;;;;;32.65;28.79;99551.69;5403969;32;34229;-71
2023/07/02 10:21:32;;;;;;;;;;;;;;;33.23;27.78;99561.38;5389102;32;34847;-71
2023/07/02 10:24:34;;;;;;;;;;;;;;;32.49;28.48;99563.12;5408431;32;34674;-73
2023/07/02 10:27:36;;;;;;;;;;;;;;;32.47;28.62;99567.97;5399337;32;35427;-74
2023/07/02 10:30:38;;;;;;;;;;;;;;;33.72;26.64;99560.34;5401728;32;35288;-73
2023/07/02 10:33:43;;;;;;;;;;;;;;;35.46;24.61;99544.41;5404549;32;34727;-71
2023/07/02 10:36:45;;;;;;;;;;;;;;;35.44;24.51;99545.75;5407882;32;34456;-72
2023/07/02 10:39:46;;;;;;;;;;;;;;;35.74;24.17;99556.41;5405803;32;34804;-70
2023/07/02 10:42:49;;;;;;;;;;;;;;;36.84;22.15;99539.47;5388518;32;34528;-71
2023/07/02 10:45:51;;;;;;;;;;;;;;;33.46;26.90;99544.37;5399110;32;34708;-71
2023/07/02 10:48:54;;;;;;;;;;;;;;;36.04;23.90;99537.88;5401611;32;35552;-73
2023/07/02 10:51:59;;;;;;;;;;;;;;;36.39;23.44;99531.41;5390836;32;34370;-73
2023/07/02 10:55:01;;;;;;;;;;;;;;;35.22;24.97;99538.16;5403701;32;34459;-73
2023/07/02 10:58:04;;;;;;;;;;;;;;;35.08;25.30;99533.22;5405161;32;34388;-72
2023/07/02 11:01:06;;;;;;;;;;;;;;;34.93;25.42;99531.81;5401182;32;34413;-71
2023/07/02 11:04:13;;;;;;;;;;;;;;;36.95;22.35;99524.00;5404087;32;34338;-72
2023/07/02 11:07:15;;;;;;;;;;;;;;;37.64;21.48;99535.28;5407755;32;34833;-71
2023/07/02 11:10:18;;;;;;;;;;;;;;;36.98;22.83;99529.00;5388892;32;34077;-71
2023/07/02 11:13:20;;;;;;;;;;;;;;;36.22;24.25;99527.78;5407741;32;36638;-71
2023/07/02 11:16:26;;;;;;;;;;;;;;;35.00;25.43;99535.25;5404002;32;35276;-73
2023/07/02 11:19:28;;;;;;;;;;;;;;;35.32;24.48;99521.16;5403911;32;34309;-71
2023/07/02 11:22:33;;;;;;;;;;;;;;;35.81;23.71;99524.31;5404004;32;34660;-72
2023/07/02 11:25:39;;;;;;;;;;;;;;;33.83;26.21;99528.78;5401059;32;34522;-70
2023/07/02 11:28:48;;;;;;;;;;;;;;;34.53;25.28;99536.31;5407745;32;35047;-73
2023/07/02 11:31:50;;;;;;;;;;;;;;;35.40;23.78;99526.22;5403237;32;35341;-71
2023/07/02 11:34:55;;;;;;;;;;;;;;;35.76;23.10;99532.44;5407603;32;35409;-74
2023/07/02 11:37:57;;;;;;;;;;;;;;;36.71;21.90;99531.59;5404432;32;35354;-71
2023/07/02 11:40:59;;;;;;;;;;;;;;;34.83;24.00;99515.16;5402985;32;34631;-72
2023/07/02 11:44:01;;;;;;;;;;;;;;;35.33;23.91;99525.53;5404950;32;34774;-70
2023/07/02 11:47:03;;;;;;;;;;;;;;;35.84;23.38;99523.00;5372786;32;34751;-72
2023/07/02 11:50:07;;;;;;;;;;;;;;;36.29;23.30;99532.00;5406841;32;35757;-72
2023/07/02 11:53:26;;;;;;;;;;;;;;;35.43;24.17;99528.53;5386080;32;35034;-72
2023/07/02 11:56:28;;;;;;;;;;;;;;;37.14;22.16;99519.88;5404316;32;35002;-74
2023/07/02 11:59:30;;;;;;;;;;;;;;;36.15;22.98;99525.22;5405314;32;34972;-73
2023/07/02 12:02:32;;;;;;;;;;;;;;;36.10;22.93;99524.31;5405340;32;34278;-72
2023/07/02 12:05:34;;;;;;;;;;;;;;;35.61;22.93;99521.19;5409759;32;35078;-72
2023/07/02 12:08:36;;;;;;;;;;;;;;;36.24;22.11;99517.41;5405611;32;34430;-72
2023/07/02 12:11:38;;;;;;;;;;;;;;;33.90;25.32;99524.06;5407042;32;35952;-69
2023/07/02 12:14:43;;;;;;;;;;;;;;;32.76;26.59;99529.19;5404642;32;35398;-73
2023/07/02 12:17:45;;;;;;;;;;;;;;;32.24;27.83;99531.31;5382092;32;35609;-72
2023/07/02 12:20:47;;;;;;;;;;;;;;;32.26;28.13;99528.34;5406713;32;34566;-72
2023/07/02 12:23:49;;;;;;;;;;;;;;;30.75;30.58;99528.84;5405104;32;35028;-73
2023/07/02 12:26:51;;;;;;;;;;;;;;;30.08;31.32;99535.28;5409579;32;34923;-73
2023/07/02 12:29:53;;;;;;;;;;;;;;;29.62;32.50;99531.41;5404407;32;35475;-71
2023/07/02 12:32:55;;;;;;;;;;;;;;;29.87;31.87;99528.13;5409960;32;34430;-75
2023/07/02 12:35:59;;;;;;;;;;;;;;;29.45;32.71;99530.09;5402804;32;34517;-73
2023/07/02 12:39:01;;;;;;;;;;;;;;;29.89;32.20;99528.78;5406382;32;35757;-70
2023/07/02 12:42:03;;;;;;;;;;;;;;;30.09;32.39;99528.81;5409528;32;35761;-73
2023/07/02 12:45:05;;;;;;;;;;;;;;;30.30;32.18;99528.63;5400610;32;34866;-73
2023/07/02 12:48:08;;;;;;;;;;;;;;;31.01;30.86;99527.94;5393428;32;35610;-71
2023/07/02 12:51:10;;;;;;;;;;;;;;;30.21;30.57;99532.62;5404008;32;34970;-71
2023/07/02 12:54:12;;;;;;;;;;;;;;;30.05;30.81;99539.22;5408925;32;34235;-72
2023/07/02 12:57:14;;;;;;;;;;;;;;;30.69;30.23;99538.66;5403297;32;35246;-74
2023/07/02 13:00:20;;;;;;;;;;;;;;;30.79;30.33;99526.56;5404769;32;34192;-73
2023/07/02 13:03:25;;;;;;;;;;;;;;;30.45;30.86;99528.41;5409448;32;34463;-70
2023/07/02 13:06:27;;;;;;;;;;;;;;;30.28;30.95;99524.47;5402543;32;34321;-70
2023/07/02 13:09:29;;;;;;;;;;;;;;;30.88;30.26;99530.69;5394492;32;34387;-70
2023/07/02 13:12:31;;;;;;;;;;;;;;;31.18;30.03;99521.00;5403628;32;35075;-71
2023/07/02 13:15:34;;;;;;;;;;;;;;;31.22;30.26;99533.09;5409983;32;34258;-71
2023/07/02 13:18:36;;;;;;;;;;;;;;;31.16;30.28;99536.66;5398991;32;34244;-71
2023/07/02 13:21:38;;;;;;;;;;;;;;;30.76;30.67;99537.81;5400801;32;34826;-70
2023/07/02 13:24:40;;;;;;;;;;;;;;;30.88;30.40;99528.81;5408823;32;36564;-71
2023/07/02 13:27:42;;;;;;;;;;;;;;;30.26;31.44;99531.97;5390852;32;34235;-71
2023/07/02 13:30:44;;;;;;;;;;;;;;;30.52;30.69;99531.97;5408531;32;35560;-70
2023/07/02 13:33:46;;;;;;;;;;;;;;;30.67;28.57;99532.62;5405242;32;35126;-70
2023/07/02 13:36:48;;;;;;;;;;;;;;;30.61;28.41;99527.16;5409547;32;35394;-74
2023/07/02 13:39:50;;;;;;;;;;;;;;;31.15;28.00;99526.84;5391123;32;35435;-73
2023/07/02 13:42:52;;;;;;;;;;;;;;;31.34;27.99;99527.03;5403903;32;34930;-71
2023/07/02 13:45:54;;;;;;;;;;;;;;;31.04;28.87;99526.66;5400194;32;34791;-73
2023/07/02 13:48:56;;;;;;;;;;;;;;;30.90;28.61;99525.88;5402002;32;34870;-73
2023/07/02 13:51:58;;;;;;;;;;;;;;;30.43;29.34;99525.09;5408218;32;34785;-74
2023/07/02 13:55:00;;;;;;;;;;;;;;;30.91;29.48;99522.94;5400784;32;34690;-73
2023/07/02 13:58:02;;;;;;;;;;;;;;;30.86;29.39;99511.09;5393997;32;34969;-72
2023/07/02 14:01:04;;;;;;;;;;;;;;;30.56;29.77;99527.78;5403467;32;34361;-71
2023/07/02 14:04:06;;;;;;;;;;;;;;;31.11;29.47;99525.62;5377359;32;35397;-71
2023/07/02 14:07:08;;;;;;;;;;;;;;;31.04;29.00;99529.37;5407920;32;34691;-73
2023/07/02 14:10:12;;;;;;;;;;;;;;;31.11;28.88;99524.75;5404024;32;34921;-70
2023/07/02 14:13:14;;;;;;;;;;;;;;;30.18;30.52;99541.97;5407070;32;34315;-72
2023/07/02 14:16:16;;;;;;;;;;;;;;;29.55;31.17;99540.56;5404730;32;34517;-71
2023/07/02 14:19:18;;;;;;;;;;;;;;;29.21;31.79;99539.56;5404932;32;35533;-70
2023/07/02 14:22:20;;;;;;;;;;;;;;;29.81;31.05;99534.38;5404498;32;36086;-70
2023/07/02 14:25:22;;;;;;;;;;;;;;;30.36;30.52;99532.41;5401197;32;34909;-70
2023/07/02 14:28:42;;;;;;;;;;;;;;;30.69;29.81;99535.94;5408012;32;34481;-70
2023/07/02 14:31:44;;;;;;;;;;;;;;;30.07;30.99;99533.59;5401854;32;34078;-71
2023/07/02 14:34:46;;;;;;;;;;;;;;;30.20;31.07;99534.47;5408019;32;34422;-71
2023/07/02 14:37:48;;;;;;;;;;;;;;;29.50;32.27;99549.28;5407761;32;34415;-73
2023/07/02 14:40:50;;;;;;;;;;;;;;;29.42;32.43;99554.84;5403582;32;35225;-70
2023/07/02 14:43:52;;;;;;;;;;;;;;;29.07;33.23;99554.91;5403058;32;34446;-73
2023/07/02 14:46:54;;;;;;;;;;;;;;;29.30;33.10;99551.87;5400487;32;34945;-73
2023/07/02 14:49:59;;;;;;;;;;;;;;;29.53;32.83;99559.72;5405869;32;35492;-72
2023/07/02 14:53:00;;;;;;;;;;;;;;;29.47;33.04;99546.13;5403746;32;34146;-73
2023/07/02 14:56:02;;;;;;;;;;;;;;;29.35;33.25;99556.69;5405074;32;35633;-73
2023/07/02 14:59:06;;;;;;;;;;;;;;;29.27;33.11;99556.88;5389910;32;35162;-73
2023/07/02 15:02:09;;;;;;;;;;;;;;;29.85;32.38;99557.31;5389142;32;35241;-71
2023/07/02 15:05:11;;;;;;;;;;;;;;;30.34;32.07;99556.19;5407576;32;34086;-73
2023/07/02 15:08:13;;;;;;;;;;;;;;;30.03;32.75;99543.19;5403049;32;35853;-73
2023/07/02 15:11:15;;;;;;;;;;;;;;;30.09;32.79;99556.75;5403528;32;34173;-70
2023/07/02 15:14:17;;;;;;;;;;;;;;;29.48;33.30;99570.28;5403173;32;35417;-71
2023/07/02 15:17:19;;;;;;;;;;;;;;;29.46;33.24;99558.81;5405108;32;35277;-72
2023/07/02 15:20:21;;;;;;;;;;;;;;;28.94;34.27;99548.59;5401406;32;34194;-70
2023/07/02 15:23:23;;;;;;;;;;;;;;;29.79;32.61;99547.31;5403515;32;35603;-73
2023/07/02 15:26:25;;;;;;;;;;;;;;;29.68;32.69;99552.25;5406704;32;34780;-70
2023/07/02 15:29:27;;;;;;;;;;;;;;;29.76;32.16;99547.72;5403219;32;35978;-70
2023/07/02 15:32:29;;;;;;;;;;;;;;;29.84;30.77;99552.94;5403418;32;34827;-69
2023/07/02 15:35:31;;;;;;;;;;;;;;;29.48;30.93;99561.31;5400974;32;34633;-73
2023/07/02 15:38:37;;;;;;;;;;;;;;;30.07;29.70;99556.09;5411050;32;34863;-71
2023/07/02 15:41:42;;;;;;;;;;;;;;;29.80;30.24;99557.91;5402595;32;34755;-72
2023/07/02 15:44:46;;;;;;;;;;;;;;;29.75;30.49;99559.56;5398019;32;34733;-70
2023/07/02 15:47:48;;;;;;;;;;;;;;;30.11;30.15;99560.09;5404756;32;34717;-71
2023/07/02 15:50:50;;;;;;;;;;;;;;;30.47;29.78;99569.72;5401583;32;37520;-72